Terminal Aerodrome Forecast
Issued by NWS Sioux Falls, SD

Home | Current Version | Previous Version | Text Only | Print | Product List | Glossary On
Versions: 1 2 3 4 5 6 7 8 9 10 11 12 13 14 15
188
FTUS43 KFSD 251120
TAFFSD
TAF
KFSD 251120Z 2512/2612 26010KT P6SM SKC
     FM251400 28014G22KT P6SM BKN035
     FM251600 29017G25KT P6SM BKN045
     FM252200 30015G23KT P6SM SCT060
     FM260200 29010KT P6SM SKC=

USA.gov is the U.S. government's official web portal to all federal, state and local government web resources and services.